createdAt,value
2022-11-05T00:00:04.035Z,1420.7
2022-11-05T00:01:47.768Z,1420.6
2022-11-05T00:03:31.450Z,1417.1
2022-11-05T00:05:15.149Z,1411.5
2022-11-05T00:06:58.860Z,1411.7
2022-11-05T00:08:42.546Z,1414.3
2022-11-05T00:10:26.256Z,1414.7
2022-11-05T00:12:09.958Z,1412.6
2022-11-05T00:13:53.680Z,1413.5
2022-11-05T00:15:37.385Z,1407.5
2022-11-05T00:17:21.092Z,1402.5
2022-11-05T00:19:04.770Z,1401.1
2022-11-05T00:20:48.474Z,1403.6
2022-11-05T00:22:32.182Z,1406.3
2022-11-05T00:24:15.877Z,1412.8
2022-11-05T00:25:59.579Z,1412.7
2022-11-05T00:27:43.292Z,1410.1
2022-11-05T00:29:26.981Z,1407.5
2022-11-05T00:31:10.685Z,1404.9
2022-11-05T00:32:54.411Z,1408.1
2022-11-05T00:34:38.087Z,1409.5
2022-11-05T00:36:21.798Z,1407.1
2022-11-05T00:38:05.493Z,1406.6
2022-11-05T00:39:49.198Z,1403.5
2022-11-05T00:41:32.924Z,1398
2022-11-05T00:43:16.606Z,1395.1
2022-11-05T00:45:00.346Z,1394.9
2022-11-05T00:46:43.992Z,1398
2022-11-05T00:48:27.727Z,1400.7
2022-11-05T00:50:11.447Z,1402.3
2022-11-05T00:51:55.108Z,1409
2022-11-05T00:53:38.824Z,1410.9
2022-11-05T00:55:22.533Z,1400.4
2022-11-05T00:57:06.235Z,1400.4
2022-11-05T00:58:49.956Z,1401.5
2022-11-05T01:00:33.614Z,1401.2
2022-11-05T01:02:17.313Z,1405.3
2022-11-05T01:04:01.031Z,1406.5
2022-11-05T01:05:44.763Z,1402.7
2022-11-05T01:07:28.429Z,1398.6
2022-11-05T01:09:12.125Z,1399.7
2022-11-05T01:10:55.831Z,1404.2
2022-11-05T01:12:39.549Z,1406.7
2022-11-05T01:14:23.243Z,1402.5
2022-11-05T01:16:06.944Z,1398.8
2022-11-05T01:17:50.641Z,1396
2022-11-05T01:19:34.341Z,1395.5
2022-11-05T01:21:18.076Z,1399.5
2022-11-05T01:23:01.765Z,1395.6
2022-11-05T01:24:45.447Z,1395.8
2022-11-05T01:26:29.164Z,1399.5
2022-11-05T01:28:12.899Z,1397
2022-11-05T01:29:56.577Z,1393.9
2022-11-05T01:31:40.284Z,1393.7
2022-11-05T01:33:23.969Z,1392
2022-11-05T01:35:07.666Z,1396.6
2022-11-05T01:36:51.365Z,1395.4
2022-11-05T01:38:35.069Z,1395.1
2022-11-05T01:40:18.775Z,1396.6
2022-11-05T01:42:02.497Z,1397.3
2022-11-05T01:43:46.179Z,1399.1
2022-11-05T01:45:29.946Z,1394.8
2022-11-05T01:47:13.575Z,1398.7
2022-11-05T01:48:57.280Z,1398
2022-11-05T01:50:41.014Z,1397.8
2022-11-05T01:52:24.683Z,1397.7
2022-11-05T01:54:08.391Z,1397.4
2022-11-05T01:55:52.088Z,1399.1
2022-11-05T01:57:35.793Z,1397
2022-11-05T01:59:19.499Z,1399.6
2022-11-05T02:01:03.199Z,1397.1
2022-11-05T02:02:46.919Z,1395.1
2022-11-05T02:04:30.611Z,1395
2022-11-05T02:06:14.306Z,1393.1
2022-11-05T02:07:58.016Z,1393.1
2022-11-05T02:09:41.712Z,1393.9
2022-11-05T02:11:25.426Z,1398.6
2022-11-05T02:13:09.120Z,1401.7
2022-11-05T02:14:52.811Z,1405.4
2022-11-05T02:16:36.521Z,1409.4
2022-11-05T02:18:20.257Z,1407
2022-11-05T02:20:03.928Z,1403.3
2022-11-05T02:21:47.647Z,1407.4
2022-11-05T02:23:31.369Z,1410.2
2022-11-05T02:25:15.044Z,1412.9
2022-11-05T02:26:58.781Z,1412.1
2022-11-05T02:28:42.446Z,1413.2
2022-11-05T02:30:26.140Z,1413.4
2022-11-05T02:32:09.855Z,1415.1
2022-11-05T02:33:53.537Z,1407.8
2022-11-05T02:35:37.250Z,1410.1
2022-11-05T02:37:20.969Z,1413.7
2022-11-05T02:39:04.656Z,1416.7
2022-11-05T02:40:48.372Z,1418.6
2022-11-05T02:42:32.051Z,1417.4
2022-11-05T02:45:59.458Z,1418.1
2022-11-05T02:47:43.194Z,1420.3
2022-11-05T02:49:26.894Z,1421
2022-11-05T02:51:10.570Z,1422
2022-11-05T02:52:54.281Z,1418.1
2022-11-05T02:54:38.054Z,1418.7
2022-11-05T02:56:21.696Z,1421.3
2022-11-05T02:58:05.374Z,1425.8
2022-11-05T02:59:49.109Z,1428
2022-11-05T03:01:32.779Z,1428.3
2022-11-05T03:03:16.535Z,1432
2022-11-05T03:05:00.212Z,1431.4
2022-11-05T03:06:43.921Z,1431.3
2022-11-05T03:08:27.600Z,1430.4
2022-11-05T03:10:11.309Z,1430.4
2022-11-05T03:11:54.997Z,1480.5
2022-11-05T03:13:38.698Z,1642.5
2022-11-05T03:15:22.404Z,1562.5
2022-11-05T03:17:06.114Z,1486.5
2022-11-05T03:18:49.816Z,1465.5
2022-11-05T03:20:33.511Z,1452.1
2022-11-05T03:22:17.241Z,1449.5
2022-11-05T03:24:00.915Z,1451.1
2022-11-05T03:25:44.615Z,1456.7
2022-11-05T03:27:28.326Z,1459.2
2022-11-05T03:29:12.021Z,1458.6
2022-11-05T03:30:55.720Z,1456
2022-11-05T03:32:39.424Z,1458.2
2022-11-05T03:34:23.121Z,1460.5
2022-11-05T03:36:06.829Z,1459.5
2022-11-05T03:37:50.529Z,1461.1
2022-11-05T03:39:34.237Z,1465.3
2022-11-05T03:41:17.937Z,1469.8
2022-11-05T03:43:01.656Z,1475.3
2022-11-05T03:44:45.360Z,1477.2
2022-11-05T03:46:29.045Z,1475.3
2022-11-05T03:48:12.776Z,1474.3
2022-11-05T03:49:56.446Z,1472.6
2022-11-05T03:51:40.145Z,1471.9
2022-11-05T03:53:23.854Z,1472.7
2022-11-05T03:55:07.585Z,1474
2022-11-05T03:56:51.306Z,1472.4
2022-11-05T03:58:34.957Z,1469.2
2022-11-05T04:00:18.697Z,1466.5
2022-11-05T04:02:02.445Z,1466.1
2022-11-05T04:03:46.062Z,1465.8
2022-11-05T04:05:29.754Z,1467.3
2022-11-05T04:07:13.464Z,1471.1
2022-11-05T04:08:57.190Z,1472.1
2022-11-05T04:10:40.863Z,1469.7
2022-11-05T04:12:24.572Z,1473.1
2022-11-05T04:14:08.318Z,1471.2
2022-11-05T04:15:51.974Z,1473.2
2022-11-05T04:17:35.678Z,1472
2022-11-05T04:19:19.374Z,1473.3
2022-11-05T04:21:03.085Z,1473.4
2022-11-05T04:22:46.830Z,1479.2
2022-11-05T04:24:30.487Z,1477.6
2022-11-05T04:26:14.189Z,1474.4
2022-11-05T04:27:57.890Z,1473.7
2022-11-05T04:29:41.591Z,1475.6
2022-11-05T04:31:25.326Z,1480.3
2022-11-05T04:33:08.994Z,1483.1
2022-11-05T04:34:52.712Z,1481.1
2022-11-05T04:36:36.420Z,1481.2
2022-11-05T04:38:20.114Z,1484.8
2022-11-05T04:40:03.810Z,1487.2
2022-11-05T04:41:47.511Z,1487.8
2022-11-05T04:43:31.216Z,1486.1
2022-11-05T04:45:14.918Z,1484.2
2022-11-05T04:46:58.621Z,1487.1
2022-11-05T04:48:42.328Z,1487
2022-11-05T04:50:26.032Z,1486.8
2022-11-05T04:52:09.723Z,1488.4
2022-11-05T04:53:53.429Z,1487.9
2022-11-05T04:55:37.133Z,1486.9
2022-11-05T04:57:20.845Z,1480.6
2022-11-05T04:59:04.538Z,1478.4
2022-11-05T05:00:48.264Z,1478.9
2022-11-05T05:02:32.022Z,1480.5
2022-11-05T05:04:15.706Z,1480
2022-11-05T05:05:59.347Z,1483.2
2022-11-05T05:07:43.052Z,1486.1
2022-11-05T05:09:26.780Z,1481.7
2022-11-05T05:11:10.447Z,1482
2022-11-05T05:12:54.153Z,1482.2
2022-11-05T05:14:37.865Z,1480.9
2022-11-05T05:16:21.604Z,1477.2
2022-11-05T05:18:05.268Z,1475.4
2022-11-05T05:19:48.970Z,1474.8
2022-11-05T05:21:32.729Z,1473.8
2022-11-05T05:23:16.460Z,1479.1
2022-11-05T05:25:00.079Z,1477.4
2022-11-05T05:26:43.777Z,1479.1
2022-11-05T05:28:27.481Z,1483.6
2022-11-05T05:30:11.206Z,1485
2022-11-05T05:31:54.895Z,1481.5
2022-11-05T05:33:38.619Z,1484.9
2022-11-05T05:35:22.287Z,1487
2022-11-05T05:37:06.002Z,1488.4
2022-11-05T05:38:49.694Z,1494.2
2022-11-05T05:40:33.408Z,1493.4
2022-11-05T05:42:17.122Z,1497.5
2022-11-05T05:44:00.802Z,1502.2
2022-11-05T05:45:44.509Z,1497.7
2022-11-05T05:47:28.208Z,1497.3
2022-11-05T05:49:11.920Z,1495.6
2022-11-05T05:50:55.614Z,1496.9
2022-11-05T05:52:39.315Z,1498.3
2022-11-05T05:54:23.059Z,1498.8
2022-11-05T05:56:06.721Z,1497.2
2022-11-05T05:57:50.441Z,1496.7
2022-11-05T05:59:34.123Z,1497.6
2022-11-05T06:01:17.828Z,1498.2
2022-11-05T06:04:45.264Z,1497.7
2022-11-05T06:06:28.959Z,1496.2
2022-11-05T06:08:12.636Z,1501.5
2022-11-05T06:09:56.340Z,1506
2022-11-05T06:11:40.118Z,1502.3
2022-11-05T06:13:23.743Z,1505.2
2022-11-05T06:15:07.452Z,1506.6
2022-11-05T06:16:51.152Z,1507.6
2022-11-05T06:18:34.860Z,1508.4
2022-11-05T06:20:18.549Z,1509.5
2022-11-05T06:22:02.307Z,1510
2022-11-05T06:23:45.971Z,1506
2022-11-05T06:25:29.690Z,1505.5
2022-11-05T06:27:13.365Z,1506.9
2022-11-05T06:28:57.088Z,1507.8
2022-11-05T06:32:24.500Z,1511.8
2022-11-05T06:34:08.233Z,1509.2
2022-11-05T06:35:51.922Z,1508.3
2022-11-05T06:37:35.595Z,1509.4
2022-11-05T06:39:19.330Z,1514.4
2022-11-05T06:41:02.998Z,1517.7
2022-11-05T06:42:46.702Z,1520.8
2022-11-05T06:44:30.435Z,1521.2
2022-11-05T06:46:14.129Z,1519.3
2022-11-05T06:47:57.875Z,1517.1
2022-11-05T06:49:41.516Z,1512.7
2022-11-05T06:51:25.238Z,1513.6
2022-11-05T06:53:08.914Z,1513.1
2022-11-05T06:54:52.645Z,1516.2
2022-11-05T06:56:36.346Z,1517.7
2022-11-05T06:58:20.045Z,1515.8
2022-11-05T07:00:03.771Z,1514.5
2022-11-05T07:01:47.439Z,1516.6
2022-11-05T07:03:31.140Z,1516.6
2022-11-05T07:05:14.836Z,1514.9
2022-11-05T07:06:58.533Z,1515
2022-11-05T07:08:42.272Z,1515.1
2022-11-05T07:10:25.963Z,1515.8
2022-11-05T07:12:09.637Z,1519.2
2022-11-05T07:13:53.356Z,1521.6
2022-11-05T07:15:37.055Z,1524.5
2022-11-05T07:17:20.780Z,1524
2022-11-05T07:19:04.452Z,1521.9
2022-11-05T07:20:48.160Z,1524.3
2022-11-05T07:22:31.907Z,1520.4
2022-11-05T07:24:15.656Z,1518.6
2022-11-05T07:25:59.318Z,1521.5
2022-11-05T07:27:42.964Z,1523.2
2022-11-05T07:29:26.670Z,1529.4
2022-11-05T07:31:10.391Z,1530
2022-11-05T07:32:54.095Z,1530.5
2022-11-05T07:34:37.783Z,1699.3
2022-11-05T07:36:21.527Z,1862.1
2022-11-05T07:38:05.177Z,1894.7
2022-11-05T07:39:48.897Z,1890.1
2022-11-05T07:41:32.666Z,1850.9
2022-11-05T07:43:16.334Z,1805.5
2022-11-05T07:45:00.012Z,1795.8
2022-11-05T07:46:43.720Z,1787
2022-11-05T07:48:27.398Z,1770.2
2022-11-05T07:50:11.102Z,1765.8
2022-11-05T07:51:54.844Z,1770.9
2022-11-05T07:53:38.502Z,1774.8
2022-11-05T07:55:22.198Z,1772.1
2022-11-05T07:57:05.935Z,1771.3
2022-11-05T07:58:49.656Z,1776.1
2022-11-05T08:00:33.309Z,1774.3
2022-11-05T08:02:17.024Z,1772.7
2022-11-05T08:04:00.725Z,1773.7
2022-11-05T08:05:44.450Z,1772.4
2022-11-05T08:07:28.138Z,1771.5
2022-11-05T08:09:11.822Z,1772.4
2022-11-05T08:10:55.535Z,1771.7
2022-11-05T08:12:39.220Z,1770.1
2022-11-05T08:14:23.003Z,1768.6
2022-11-05T08:16:06.655Z,1770.5
2022-11-05T08:17:50.339Z,1775.6
2022-11-05T08:19:34.064Z,1779.1
2022-11-05T08:21:17.801Z,1775.6
2022-11-05T08:23:01.469Z,1780.4
2022-11-05T08:24:45.152Z,1782.4
2022-11-05T08:26:28.884Z,1777.5
2022-11-05T08:28:12.567Z,1771.1
2022-11-05T08:29:56.251Z,1772
2022-11-05T08:31:39.949Z,1777.3
2022-11-05T08:33:23.659Z,1780.1
2022-11-05T08:35:07.364Z,1783.4
2022-11-05T08:36:51.153Z,1785.3
2022-11-05T08:38:34.765Z,1788.3
2022-11-05T08:40:18.468Z,1786.3
2022-11-05T08:42:02.171Z,1783.4
2022-11-05T08:43:45.874Z,1781.4
2022-11-05T08:45:29.580Z,1785.6
2022-11-05T08:47:13.277Z,1793
2022-11-05T08:48:57.021Z,1799.2
2022-11-05T08:50:40.675Z,1805
2022-11-05T08:52:24.387Z,1807.9
2022-11-05T08:54:08.131Z,1810.3
2022-11-05T08:55:51.815Z,1814.9
2022-11-05T08:57:35.535Z,1813.4
2022-11-05T08:59:19.198Z,1815.1
2022-11-05T09:01:02.904Z,1820.5
2022-11-05T09:02:46.610Z,1817.1
2022-11-05T09:04:30.321Z,1813.6
2022-11-05T09:06:14.079Z,1815.4
2022-11-05T09:07:57.769Z,1815.3
2022-11-05T09:11:25.120Z,1812.5
2022-11-05T09:13:08.818Z,1808.3
2022-11-05T09:14:52.559Z,1809.7
2022-11-05T09:16:36.254Z,1818.3
2022-11-05T09:18:19.967Z,1822.9
2022-11-05T09:20:03.627Z,1824.9
2022-11-05T09:21:47.331Z,1825.8
2022-11-05T09:23:31.025Z,1830.2
2022-11-05T09:25:14.765Z,1825.6
2022-11-05T09:26:58.468Z,1825.7
2022-11-05T09:28:42.141Z,1822.4
2022-11-05T09:30:25.875Z,1821.6
2022-11-05T09:32:09.546Z,1819.9
2022-11-05T09:33:53.268Z,1811.5
2022-11-05T09:35:36.954Z,1807.3
2022-11-05T09:37:20.687Z,1806.6
2022-11-05T09:39:04.347Z,1807.1
2022-11-05T09:40:48.055Z,1807.8
2022-11-05T09:42:31.798Z,1803.7
2022-11-05T09:44:15.476Z,1799.6
2022-11-05T09:45:59.164Z,1798.2
2022-11-05T09:47:42.899Z,1793.9
2022-11-05T09:49:26.581Z,1785.9
2022-11-05T09:51:10.318Z,1778.6
2022-11-05T09:52:54.044Z,1781.8
2022-11-05T09:54:37.680Z,1779.7
2022-11-05T09:56:21.387Z,1785.3
2022-11-05T09:58:05.084Z,1791.2
2022-11-05T09:59:48.786Z,1806.5
2022-11-05T10:01:32.484Z,1819.1
2022-11-05T10:03:16.224Z,1822.8
2022-11-05T10:04:59.913Z,1832.2
2022-11-05T10:06:43.589Z,1847.4
2022-11-05T10:08:27.308Z,1859.6
2022-11-05T10:10:10.994Z,1866
2022-11-05T10:11:54.712Z,1880.1
2022-11-05T10:13:38.445Z,1888.7
2022-11-05T10:15:22.144Z,1893.3
2022-11-05T10:17:05.839Z,1892.1
2022-11-05T10:18:49.514Z,1899.8
2022-11-05T10:20:33.207Z,1903.6
2022-11-05T10:22:16.925Z,1904.1
2022-11-05T10:24:00.617Z,1894.5
2022-11-05T10:25:44.364Z,1865
2022-11-05T10:27:28.069Z,1819.1
2022-11-05T10:29:11.757Z,1814.4
2022-11-05T10:30:55.452Z,1809.1
2022-11-05T10:32:39.120Z,1799.8
2022-11-05T10:34:22.853Z,1792.5
2022-11-05T10:36:06.537Z,1777.8
2022-11-05T10:37:50.239Z,1752.3
2022-11-05T10:39:34.009Z,1744.8
2022-11-05T10:41:17.635Z,1729
2022-11-05T10:43:01.346Z,1722.6
2022-11-05T10:44:45.075Z,1713.9
2022-11-05T10:46:28.752Z,1708.4
2022-11-05T10:48:12.460Z,1702
2022-11-05T10:49:56.171Z,1695.8
2022-11-05T10:51:39.858Z,1695.2
2022-11-05T10:53:23.656Z,1693.8
2022-11-05T10:55:07.260Z,1692.3
2022-11-05T10:56:50.973Z,1678.2
2022-11-05T10:58:34.677Z,1665.6
2022-11-05T11:00:18.367Z,1664.7
2022-11-05T11:02:02.073Z,1683.9
2022-11-05T11:03:45.781Z,1676.9
2022-11-05T11:05:29.487Z,1656.9
2022-11-05T11:07:13.301Z,1661.4
2022-11-05T11:08:56.894Z,1665.8
2022-11-05T11:10:40.688Z,1670.8
2022-11-05T11:12:24.383Z,1679
2022-11-05T11:14:08.023Z,1684.7
2022-11-05T11:15:51.690Z,1687.8
2022-11-05T11:17:35.443Z,1684.3
2022-11-05T11:19:19.133Z,1681
2022-11-05T11:21:02.845Z,1686.7
2022-11-05T11:22:46.498Z,1684.1
2022-11-05T11:24:30.249Z,1680.8
2022-11-05T11:26:13.938Z,1679.1
2022-11-05T11:27:57.650Z,1680.3
2022-11-05T11:29:41.331Z,1677.6
2022-11-05T11:31:25.007Z,1676
2022-11-05T11:33:08.715Z,1678.6
2022-11-05T11:34:52.417Z,1680
2022-11-05T11:36:36.115Z,1681.7
2022-11-05T11:38:19.821Z,1678
2022-11-05T11:40:03.550Z,1670.1
2022-11-05T11:41:47.255Z,1666.6
2022-11-05T11:43:30.950Z,1669.2
2022-11-05T11:45:14.632Z,1664.9
2022-11-05T11:46:58.332Z,1654.9
2022-11-05T11:48:42.090Z,1659.2
2022-11-05T11:50:25.752Z,1665.4
2022-11-05T11:52:09.437Z,1660.8
2022-11-05T11:53:53.144Z,1656.8
2022-11-05T11:55:36.840Z,1653.1
2022-11-05T11:57:20.545Z,1645.5
2022-11-05T11:59:04.338Z,1638
2022-11-05T12:00:48.016Z,1619.4
2022-11-05T12:02:31.676Z,1604
2022-11-05T12:04:15.369Z,1594.2
2022-11-05T12:05:59.084Z,1587
2022-11-05T12:07:42.801Z,1582.8
2022-11-05T12:09:26.461Z,1580.4
2022-11-05T12:11:10.171Z,1577.2
2022-11-05T12:12:53.872Z,1567.7
2022-11-05T12:14:37.586Z,1566.6
2022-11-05T12:16:21.281Z,1562.3
2022-11-05T12:18:04.971Z,1557.6
2022-11-05T12:19:48.692Z,1561.3
2022-11-05T12:21:32.388Z,1561.6
2022-11-05T12:23:16.089Z,1557.1
2022-11-05T12:24:59.814Z,1545.1
2022-11-05T12:26:43.490Z,1516.6
2022-11-05T12:28:27.198Z,1501.6
2022-11-05T12:30:10.971Z,1493.2
2022-11-05T12:31:54.592Z,1483.2
2022-11-05T12:33:38.294Z,1479.6
2022-11-05T12:35:22.003Z,1478.2
2022-11-05T12:37:05.746Z,1477.7
2022-11-05T12:38:49.406Z,1472.7
2022-11-05T12:40:33.119Z,1468.5
2022-11-05T12:42:16.807Z,1465.1
2022-11-05T12:44:00.516Z,1461
2022-11-05T12:45:44.211Z,1459.5
2022-11-05T12:47:27.935Z,1456.8
2022-11-05T12:49:11.643Z,1454
2022-11-05T12:50:55.311Z,1450.6
2022-11-05T12:52:39.020Z,1450.6
2022-11-05T12:54:22.751Z,1442.6
2022-11-05T12:56:06.433Z,1438.4
2022-11-05T12:57:50.139Z,1435.1
2022-11-05T12:59:33.834Z,1430.5
2022-11-05T13:01:17.529Z,1430.6
2022-11-05T13:03:01.246Z,1430.9
2022-11-05T13:04:44.928Z,1427.3
2022-11-05T13:06:28.651Z,1420.8
2022-11-05T13:08:12.350Z,1402.9
2022-11-05T13:09:56.052Z,1395.3
2022-11-05T13:11:39.747Z,1392
2022-11-05T13:13:23.489Z,1388.4
2022-11-05T13:15:07.206Z,1383
2022-11-05T13:16:50.863Z,1380.6
2022-11-05T13:18:34.555Z,1378.3
2022-11-05T13:20:18.273Z,1377.8
2022-11-05T13:22:01.962Z,1378.2
2022-11-05T13:23:45.712Z,1376
2022-11-05T13:25:29.373Z,1368.2
2022-11-05T13:27:13.073Z,1364.2
2022-11-05T13:28:56.782Z,1358.9
2022-11-05T13:30:40.539Z,1356.2
2022-11-05T13:32:24.229Z,1352.5
2022-11-05T13:34:07.991Z,1346.5
2022-11-05T13:35:51.600Z,1344.8
2022-11-05T13:37:35.339Z,1339.3
2022-11-05T13:39:18.996Z,1331.8
2022-11-05T13:41:02.741Z,1324
2022-11-05T13:42:46.408Z,1319.1
2022-11-05T13:44:30.104Z,1321.1
2022-11-05T13:46:13.830Z,1318.4
2022-11-05T13:47:57.536Z,1311.8
2022-11-05T13:49:41.210Z,1295.3
2022-11-05T13:51:25.055Z,1299.4
2022-11-05T13:53:08.614Z,1301.5
2022-11-05T13:54:52.404Z,1299.9
2022-11-05T13:56:36.035Z,1297.5
2022-11-05T13:58:19.769Z,1295.8
2022-11-05T14:00:03.430Z,1280.3
2022-11-05T14:01:47.182Z,1272
2022-11-05T14:03:30.835Z,1271.5
2022-11-05T14:05:14.542Z,1281.9
2022-11-05T14:06:58.251Z,1285.6
2022-11-05T14:08:41.937Z,1285.9
2022-11-05T14:10:25.635Z,1283
2022-11-05T14:12:09.340Z,1278.8
2022-11-05T14:13:53.045Z,1277.3
2022-11-05T14:15:36.758Z,1272.8
2022-11-05T14:17:20.462Z,1273
2022-11-05T14:19:04.190Z,1269.2
2022-11-05T14:20:47.891Z,1269
2022-11-05T14:22:31.559Z,1261.9
2022-11-05T14:24:15.280Z,1252.6
2022-11-05T14:25:59.005Z,1244.8
2022-11-05T14:27:42.674Z,1241.8
2022-11-05T14:29:26.389Z,1238.3
2022-11-05T14:31:10.067Z,1235.3
2022-11-05T14:32:53.805Z,1232.4
2022-11-05T14:34:37.482Z,1229.7
2022-11-05T14:36:21.178Z,1226.8
2022-11-05T14:38:04.882Z,1219
2022-11-05T14:39:48.591Z,1215.8
2022-11-05T14:41:32.286Z,1216.9
2022-11-05T14:43:16.014Z,1216.8
2022-11-05T14:44:59.703Z,1216.3
2022-11-05T14:46:43.398Z,1216
2022-11-05T14:48:27.103Z,1214.6
2022-11-05T14:50:10.800Z,1212.1
2022-11-05T14:51:54.519Z,1208.7
2022-11-05T14:53:38.211Z,1209
2022-11-05T14:55:21.925Z,1202.9
2022-11-05T14:57:05.641Z,1202.2
2022-11-05T14:58:49.304Z,1201.3
2022-11-05T15:00:33.011Z,1200.7
2022-11-05T15:02:16.775Z,1197.6
2022-11-05T15:04:00.442Z,1191.7
2022-11-05T15:05:44.123Z,1185.9
2022-11-05T15:07:27.831Z,1183.4
2022-11-05T15:09:11.534Z,1183.1
2022-11-05T15:10:55.237Z,1181.9
2022-11-05T15:12:38.921Z,1177.3
2022-11-05T15:14:22.642Z,1175.2
2022-11-05T15:16:06.383Z,1173.1
2022-11-05T15:17:50.037Z,1170.4
2022-11-05T15:19:33.775Z,1168
2022-11-05T15:21:17.498Z,1163.7
2022-11-05T15:23:01.153Z,1159.4
2022-11-05T15:24:44.848Z,1154.9
2022-11-05T15:26:28.593Z,1156.6
2022-11-05T15:28:12.247Z,1153.9
2022-11-05T15:29:56.011Z,1149.3
2022-11-05T15:31:39.656Z,1150.5
2022-11-05T15:33:23.405Z,1169.3
2022-11-05T15:35:07.067Z,1191.5
2022-11-05T15:36:50.782Z,1199.6
2022-11-05T15:38:34.488Z,1207.6
2022-11-05T15:40:18.164Z,1212.3
2022-11-05T15:42:01.907Z,1219.8
2022-11-05T15:43:45.609Z,1217
2022-11-05T15:45:29.273Z,1197.5
2022-11-05T15:47:12.975Z,1147.1
2022-11-05T15:48:56.676Z,1159.9
2022-11-05T15:50:40.423Z,1153.7
2022-11-05T15:52:24.076Z,1151.6
2022-11-05T15:54:07.779Z,1149.9
2022-11-05T15:55:51.485Z,1152.9
2022-11-05T15:57:35.187Z,1153.4
2022-11-05T15:59:18.935Z,1154.1
2022-11-05T16:01:02.586Z,1154.2
2022-11-05T16:02:46.321Z,1157.5
2022-11-05T16:04:29.997Z,1158.1
2022-11-05T16:06:13.763Z,1150.3
2022-11-05T16:07:57.410Z,1147.2
2022-11-05T16:09:41.154Z,1143.2
2022-11-05T16:11:24.804Z,1141
2022-11-05T16:13:08.505Z,1140.2
2022-11-05T16:14:52.207Z,1139.4
2022-11-05T16:16:35.914Z,1137.8
2022-11-05T16:18:19.614Z,1135.7
2022-11-05T16:20:03.315Z,1131
2022-11-05T16:21:47.022Z,1130.5
2022-11-05T16:23:30.722Z,1127.7
2022-11-05T16:25:14.440Z,1124.5
2022-11-05T16:26:58.152Z,1138.9
2022-11-05T16:28:41.867Z,1213.6
2022-11-05T16:30:25.535Z,1217.4
2022-11-05T16:32:09.237Z,1232.6
2022-11-05T16:33:52.942Z,1234.3
2022-11-05T16:35:36.646Z,1252.3
2022-11-05T16:37:20.371Z,1294.5
2022-11-05T16:39:04.068Z,1331.4
2022-11-05T16:40:47.788Z,1370.6
2022-11-05T16:42:31.452Z,1390.1
2022-11-05T16:44:15.156Z,1400.3
2022-11-05T16:45:58.856Z,1404.3
2022-11-05T16:47:42.562Z,1410.3
2022-11-05T16:49:26.260Z,1421.2
2022-11-05T16:51:09.968Z,1433.5
2022-11-05T16:52:53.691Z,1447.8
2022-11-05T16:54:37.367Z,1456.7
2022-11-05T16:56:21.070Z,1459.9
2022-11-05T16:58:04.776Z,1456.2
2022-11-05T16:59:48.490Z,1458.5
2022-11-05T17:01:32.197Z,1467.2
2022-11-05T17:03:15.927Z,1474
2022-11-05T17:04:59.593Z,1478
2022-11-05T17:06:43.296Z,1479.5
2022-11-05T17:08:26.998Z,1480.9
2022-11-05T17:10:10.744Z,1482
2022-11-05T17:11:54.415Z,1481
2022-11-05T17:13:38.172Z,1476
2022-11-05T17:15:21.824Z,1471.8
2022-11-05T17:17:05.523Z,1472.1
2022-11-05T17:18:49.217Z,1475.7
2022-11-05T17:20:32.916Z,1506.3
2022-11-05T17:22:16.647Z,1524.4
2022-11-05T17:24:00.337Z,1534.4
2022-11-05T17:25:44.022Z,1546.7
2022-11-05T17:27:27.735Z,1559.3
2022-11-05T17:29:11.468Z,1578.6
2022-11-05T17:30:55.166Z,1598.8
2022-11-05T17:32:38.833Z,1612.1
2022-11-05T17:34:22.544Z,1615.8
2022-11-05T17:36:06.287Z,1622.4
2022-11-05T17:37:49.969Z,1646.6
2022-11-05T17:39:33.681Z,1669.5
2022-11-05T17:41:17.410Z,1687.2
2022-11-05T17:43:01.058Z,1723
2022-11-05T17:44:44.748Z,1725.4
2022-11-05T17:46:28.493Z,1727.4
2022-11-05T17:48:12.163Z,1711.2
2022-11-05T17:51:39.567Z,1694.2
2022-11-05T17:53:23.297Z,1704.6
2022-11-05T17:55:06.998Z,1735.2
2022-11-05T17:56:50.678Z,1777.3
2022-11-05T17:58:34.378Z,1775.9
2022-11-05T18:00:18.080Z,1781.5
2022-11-05T18:02:01.784Z,1792
2022-11-05T18:03:45.504Z,1799.1
2022-11-05T18:05:29.196Z,1809
2022-11-05T18:07:12.922Z,1816.5
2022-11-05T18:08:56.611Z,1820
2022-11-05T18:10:40.324Z,1816.6
2022-11-05T18:12:24.003Z,1816.1
2022-11-05T18:14:07.721Z,1814.6
2022-11-05T18:15:51.420Z,1806.2
2022-11-05T18:17:35.114Z,1801.6
2022-11-05T18:19:18.861Z,1805.7
2022-11-05T18:21:02.521Z,1805.7
2022-11-05T18:22:46.254Z,1810.2
2022-11-05T18:24:30.017Z,1810
2022-11-05T18:26:13.634Z,1802
2022-11-05T18:27:57.330Z,1806.6
2022-11-05T18:29:41.038Z,1823.8
2022-11-05T18:31:24.746Z,1837.9
2022-11-05T18:33:08.500Z,1848.6
2022-11-05T18:34:52.142Z,1858.3
2022-11-05T18:36:35.884Z,1866.3
2022-11-05T18:38:19.614Z,1873.7
2022-11-05T18:40:03.246Z,1867
2022-11-05T18:41:46.953Z,1841
2022-11-05T18:43:30.661Z,1847.6
2022-11-05T18:45:14.358Z,1849.9
2022-11-05T18:46:58.084Z,1844.2
2022-11-05T18:48:41.760Z,1842.7
2022-11-05T18:50:25.501Z,1850.9
2022-11-05T18:52:09.174Z,1851.6
2022-11-05T18:53:52.951Z,1849.3
2022-11-05T18:55:36.600Z,1847.2
2022-11-05T18:57:20.296Z,1846.1
2022-11-05T18:59:03.983Z,1856.5
2022-11-05T19:00:47.759Z,1866.1
2022-11-05T19:02:31.418Z,1889.9
2022-11-05T19:04:15.139Z,1915.7
2022-11-05T19:05:58.804Z,1916.3
2022-11-05T19:07:42.509Z,1916.6
2022-11-05T19:09:26.196Z,1914.7
2022-11-05T19:11:09.899Z,1878.4
2022-11-05T19:12:53.714Z,1841.9
2022-11-05T19:14:37.355Z,1850.7
2022-11-05T19:16:21.012Z,1904.5
2022-11-05T19:18:04.778Z,1918
2022-11-05T19:19:48.440Z,1916.1
2022-11-05T19:21:32.170Z,1910.4
2022-11-05T19:23:15.838Z,1903.5
2022-11-05T19:24:59.585Z,1907.6
2022-11-05T19:26:45.459Z,1956.7
2022-11-05T19:28:29.146Z,1964.2
2022-11-05T19:30:12.869Z,1956.1
2022-11-05T19:31:56.554Z,1968.2
2022-11-05T19:33:40.289Z,1963.7
2022-11-05T19:35:23.865Z,1969.8
2022-11-05T19:37:07.623Z,1977.6
2022-11-05T19:38:51.294Z,1977.5
2022-11-05T19:40:35.018Z,1980.1
2022-11-05T19:42:18.719Z,1987.4
2022-11-05T19:44:02.409Z,1984.1
2022-11-05T19:45:46.119Z,1976.1
2022-11-05T19:47:29.886Z,1969.9
2022-11-05T19:49:13.516Z,1959.2
2022-11-05T19:50:57.190Z,1921.1
2022-11-05T19:52:40.959Z,1927.9
2022-11-05T19:54:24.634Z,1938.4
2022-11-05T19:56:08.309Z,1963.3
2022-11-05T19:57:52.028Z,1978.5
2022-11-05T19:59:35.770Z,1960.8
2022-11-05T20:01:19.464Z,1953.1
2022-11-05T20:03:03.153Z,1949.5
2022-11-05T20:04:46.836Z,1958.5
2022-11-05T20:06:30.551Z,1970.8
2022-11-05T20:08:14.219Z,1972.4
2022-11-05T20:09:58.027Z,1968.6
2022-11-05T20:11:41.623Z,1961.6
2022-11-05T20:13:25.327Z,1950.5
2022-11-05T20:15:09.028Z,1964.8
2022-11-05T20:16:52.728Z,1961.3
2022-11-05T20:18:36.483Z,1967.1
2022-11-05T20:20:22.356Z,1995.7
2022-11-05T20:22:06.015Z,1988.3
2022-11-05T20:23:49.689Z,1992.9
2022-11-05T20:25:33.380Z,1988.4
2022-11-05T20:27:17.167Z,1984
2022-11-05T20:29:00.832Z,1969.7
2022-11-05T20:30:44.490Z,1962.2
2022-11-05T20:32:28.193Z,1964.4
2022-11-05T20:34:11.910Z,1948.3
2022-11-05T20:35:55.595Z,1972
2022-11-05T20:37:39.403Z,1979.7
2022-11-05T20:39:35.806Z,2005.4
2022-11-05T20:41:30.318Z,2001.8
2022-11-05T20:43:22.423Z,2000.5
2022-11-05T20:45:06.197Z,1987
2022-11-05T20:46:49.851Z,1971.6
2022-11-05T20:48:33.535Z,1972.8
2022-11-05T20:50:17.247Z,1981.5
2022-11-05T20:52:01.002Z,1990.7
2022-11-05T20:53:44.654Z,1985.9
2022-11-05T20:55:32.614Z,1996.1
2022-11-05T20:57:29.123Z,2003.4
2022-11-05T20:59:34.220Z,2012.9
2022-11-05T21:01:22.141Z,1993.1
2022-11-05T21:03:05.857Z,1990.8
2022-11-05T21:04:49.595Z,1990.8
2022-11-05T21:06:33.301Z,1988.6
2022-11-05T21:08:17.042Z,1971.6
2022-11-05T21:10:00.708Z,1960.6
2022-11-05T21:11:44.360Z,1932.6
2022-11-05T21:13:28.121Z,1895
2022-11-05T21:15:11.832Z,1907.4
2022-11-05T21:16:55.516Z,1915.9
2022-11-05T21:18:39.220Z,1904.2
2022-11-05T21:20:22.930Z,1904.8
2022-11-05T21:22:06.671Z,1902.9
2022-11-05T21:23:50.301Z,1901.5
2022-11-05T21:25:33.979Z,1889.7
2022-11-05T21:27:17.710Z,1886.8
2022-11-05T21:29:01.471Z,1879.4
2022-11-05T21:30:45.085Z,1867.8
2022-11-05T21:32:28.777Z,1854.4
2022-11-05T21:34:12.543Z,1851.6
2022-11-05T21:35:56.285Z,1846.8
2022-11-05T21:37:39.904Z,1835.6
2022-11-05T21:39:23.596Z,1813.3
2022-11-05T21:41:07.340Z,1801.9
2022-11-05T21:42:51.070Z,1786.6
2022-11-05T21:44:34.705Z,1784
2022-11-05T21:46:18.423Z,1778.7
2022-11-05T21:48:02.115Z,1772
2022-11-05T21:49:45.807Z,1765.9
2022-11-05T21:51:29.532Z,1763.6